sensor_id;sensor_type;location;lat;lon;timestamp;pressure;altitude;pressure_sealevel;temperature;humidity
19447;BME280;9862;49.462;11.054;2023-07-08T00:00:38;98255.38;;;24.01;58.84
19447;BME280;9862;49.462;11.054;2023-07-08T00:03:05;98258.16;;;23.95;59.13
19447;BME280;9862;49.462;11.054;2023-07-08T00:05:32;98253.28;;;23.92;59.01
19447;BME280;9862;49.462;11.054;2023-07-08T00:07:58;98257.91;;;23.92;58.55
19447;BME280;9862;49.462;11.054;2023-07-08T00:10:27;98261.75;;;23.91;58.83
19447;BME280;9862;49.462;11.054;2023-07-08T00:12:55;98256.81;;;23.93;58.90
19447;BME280;9862;49.462;11.054;2023-07-08T00:15:25;98258.72;;;23.92;58.81
19447;BME280;9862;49.462;11.054;2023-07-08T00:17:52;98258.28;;;23.85;59.07
19447;BME280;9862;49.462;11.054;2023-07-08T00:20:21;98256.94;;;23.83;59.36
19447;BME280;9862;49.462;11.054;2023-07-08T00:22:49;98255.69;;;23.75;59.27
19447;BME280;9862;49.462;11.054;2023-07-08T00:25:16;98257.84;;;23.73;59.29
19447;BME280;9862;49.462;11.054;2023-07-08T00:27:44;98254.09;;;23.69;59.58
19447;BME280;9862;49.462;11.054;2023-07-08T00:30:18;98260.97;;;23.61;59.81
19447;BME280;9862;49.462;11.054;2023-07-08T00:32:47;98258.56;;;23.60;59.98
19447;BME280;9862;49.462;11.054;2023-07-08T00:35:19;98249.84;;;23.58;60.37
19447;BME280;9862;49.462;11.054;2023-07-08T00:37:46;98250.94;;;23.57;60.39
19447;BME280;9862;49.462;11.054;2023-07-08T00:40:17;98247.69;;;23.60;60.71
19447;BME280;9862;49.462;11.054;2023-07-08T00:42:45;98245.81;;;23.55;60.71
19447;BME280;9862;49.462;11.054;2023-07-08T00:45:21;98255.91;;;23.50;59.97
19447;BME280;9862;49.462;11.054;2023-07-08T00:47:53;98253.78;;;23.47;60.47
19447;BME280;9862;49.462;11.054;2023-07-08T00:50:20;98253.81;;;23.41;60.47
19447;BME280;9862;49.462;11.054;2023-07-08T00:52:46;98253.59;;;23.38;61.15
19447;BME280;9862;49.462;11.054;2023-07-08T00:55:13;98248.97;;;23.38;60.49
19447;BME280;9862;49.462;11.054;2023-07-08T00:57:42;98250.88;;;23.38;60.81
19447;BME280;9862;49.462;11.054;2023-07-08T01:00:12;98262.03;;;23.36;60.63
19447;BME280;9862;49.462;11.054;2023-07-08T01:02:43;98256.59;;;23.36;59.72
19447;BME280;9862;49.462;11.054;2023-07-08T01:05:14;98261.47;;;23.34;60.28
19447;BME280;9862;49.462;11.054;2023-07-08T01:07:45;98252.53;;;23.34;59.75
19447;BME280;9862;49.462;11.054;2023-07-08T01:10:19;98244.66;;;23.32;59.73
19447;BME280;9862;49.462;11.054;2023-07-08T01:12:53;98243.03;;;23.31;59.35
19447;BME280;9862;49.462;11.054;2023-07-08T01:15:23;98241.13;;;23.32;59.28
19447;BME280;9862;49.462;11.054;2023-07-08T01:17:52;98241.72;;;23.29;59.79
19447;BME280;9862;49.462;11.054;2023-07-08T01:20:20;98236.31;;;23.24;60.01
19447;BME280;9862;49.462;11.054;2023-07-08T01:22:48;98240.66;;;23.25;59.87
19447;BME280;9862;49.462;11.054;2023-07-08T01:25:15;98227.38;;;23.23;59.88
19447;BME280;9862;49.462;11.054;2023-07-08T01:27:44;98238.75;;;23.25;60.52
19447;BME280;9862;49.462;11.054;2023-07-08T01:30:13;98240.38;;;23.26;60.61
19447;BME280;9862;49.462;11.054;2023-07-08T01:32:45;98235.78;;;23.27;61.53
19447;BME280;9862;49.462;11.054;2023-07-08T01:35:14;98238.22;;;23.23;61.67
19447;BME280;9862;49.462;11.054;2023-07-08T01:37:44;98236.09;;;23.20;61.29
19447;BME280;9862;49.462;11.054;2023-07-08T01:40:25;98235.88;;;23.17;61.38
19447;BME280;9862;49.462;11.054;2023-07-08T01:42:52;98234.28;;;23.10;60.42
19447;BME280;9862;49.462;11.054;2023-07-08T01:45:22;98242.72;;;23.09;59.96
19447;BME280;9862;49.462;11.054;2023-07-08T01:47:53;98235.41;;;23.04;61.88
19447;BME280;9862;49.462;11.054;2023-07-08T01:50:22;98237.31;;;23.04;66.02
19447;BME280;9862;49.462;11.054;2023-07-08T01:52:51;98239.22;;;23.03;69.19
19447;BME280;9862;49.462;11.054;2023-07-08T01:55:22;98233.03;;;22.98;70.63
19447;BME280;9862;49.462;11.054;2023-07-08T01:57:51;98236.59;;;22.93;72.84
19447;BME280;9862;49.462;11.054;2023-07-08T02:00:18;98239.06;;;22.90;73.59
19447;BME280;9862;49.462;11.054;2023-07-08T02:02:44;98235.56;;;22.84;74.55
19447;BME280;9862;49.462;11.054;2023-07-08T02:05:11;98239.63;;;22.81;74.51
19447;BME280;9862;49.462;11.054;2023-07-08T02:07:38;98236.44;;;22.74;75.23
19447;BME280;9862;49.462;11.054;2023-07-08T02:10:05;98243.53;;;22.70;76.17
19447;BME280;9862;49.462;11.054;2023-07-08T02:12:35;98244.06;;;22.67;76.42
19447;BME280;9862;49.462;11.054;2023-07-08T02:15:05;98252.25;;;22.62;76.63
19447;BME280;9862;49.462;11.054;2023-07-08T02:17:34;98239.50;;;22.57;76.20
19447;BME280;9862;49.462;11.054;2023-07-08T02:20:03;98240.81;;;22.65;75.73
19447;BME280;9862;49.462;11.054;2023-07-08T02:22:33;98243.97;;;22.88;75.36
19447;BME280;9862;49.462;11.054;2023-07-08T02:25:00;98244.00;;;22.77;75.50
19447;BME280;9862;49.462;11.054;2023-07-08T02:27:26;98243.03;;;22.58;76.75
19447;BME280;9862;49.462;11.054;2023-07-08T02:29:55;98246.38;;;22.45;78.00
19447;BME280;9862;49.462;11.054;2023-07-08T02:32:21;98243.66;;;22.45;78.06
19447;BME280;9862;49.462;11.054;2023-07-08T02:34:48;98248.63;;;22.33;79.43
19447;BME280;9862;49.462;11.054;2023-07-08T02:37:17;98238.88;;;22.26;80.32
19447;BME280;9862;49.462;11.054;2023-07-08T02:39:43;98236.69;;;22.28;80.60
19447;BME280;9862;49.462;11.054;2023-07-08T02:42:10;98238.88;;;22.32;80.28
19447;BME280;9862;49.462;11.054;2023-07-08T02:44:37;98239.41;;;22.28;80.08
19447;BME280;9862;49.462;11.054;2023-07-08T02:47:05;98239.97;;;22.31;80.40
19447;BME280;9862;49.462;11.054;2023-07-08T02:49:31;98245.88;;;22.38;78.20
19447;BME280;9862;49.462;11.054;2023-07-08T02:51:59;98244.81;;;22.34;76.98
19447;BME280;9862;49.462;11.054;2023-07-08T02:54:26;98248.34;;;22.34;77.14
19447;BME280;9862;49.462;11.054;2023-07-08T02:56:52;98259.47;;;22.33;79.34
19447;BME280;9862;49.462;11.054;2023-07-08T02:59:19;98236.16;;;22.32;79.87
19447;BME280;9862;49.462;11.054;2023-07-08T03:01:46;98247.81;;;22.32;79.52
19447;BME280;9862;49.462;11.054;2023-07-08T03:04:14;98249.75;;;22.26;80.41
19447;BME280;9862;49.462;11.054;2023-07-08T03:06:40;98258.72;;;22.22;80.89
19447;BME280;9862;49.462;11.054;2023-07-08T03:09:07;98258.44;;;22.18;80.53
19447;BME280;9862;49.462;11.054;2023-07-08T03:11:36;98256.81;;;22.22;80.58
19447;BME280;9862;49.462;11.054;2023-07-08T03:14:02;98250.34;;;22.13;80.84
19447;BME280;9862;49.462;11.054;2023-07-08T03:16:29;98262.31;;;21.97;82.45
19447;BME280;9862;49.462;11.054;2023-07-08T03:18:55;98265.56;;;21.94;83.27
19447;BME280;9862;49.462;11.054;2023-07-08T03:21:23;98268.84;;;21.91;83.66
19447;BME280;9862;49.462;11.054;2023-07-08T03:23:51;98272.63;;;21.90;83.51
19447;BME280;9862;49.462;11.054;2023-07-08T03:26:19;98276.97;;;21.86;84.62
19447;BME280;9862;49.462;11.054;2023-07-08T03:28:47;98277.53;;;21.83;84.24
19447;BME280;9862;49.462;11.054;2023-07-08T03:31:15;98281.06;;;21.78;84.70
19447;BME280;9862;49.462;11.054;2023-07-08T03:33:42;98275.91;;;21.77;85.66
19447;BME280;9862;49.462;11.054;2023-07-08T03:36:12;98273.22;;;21.77;85.89
19447;BME280;9862;49.462;11.054;2023-07-08T03:38:43;98275.91;;;21.82;86.06
19447;BME280;9862;49.462;11.054;2023-07-08T03:41:09;98281.84;;;21.89;85.97
19447;BME280;9862;49.462;11.054;2023-07-08T03:43:36;98281.84;;;21.94;85.29
19447;BME280;9862;49.462;11.054;2023-07-08T03:46:02;98291.59;;;21.95;85.31
19447;BME280;9862;49.462;11.054;2023-07-08T03:48:29;98288.59;;;22.02;83.18
19447;BME280;9862;49.462;11.054;2023-07-08T03:50:55;98288.88;;;21.95;84.87
19447;BME280;9862;49.462;11.054;2023-07-08T03:53:22;98285.09;;;21.91;84.86
19447;BME280;9862;49.462;11.054;2023-07-08T03:55:50;98292.69;;;21.89;86.02
19447;BME280;9862;49.462;11.054;2023-07-08T03:58:17;98290.53;;;21.86;86.40
19447;BME280;9862;49.462;11.054;2023-07-08T04:00:43;98290.53;;;21.81;86.76
19447;BME280;9862;49.462;11.054;2023-07-08T04:03:10;98293.78;;;21.78;87.66
19447;BME280;9862;49.462;11.054;2023-07-08T04:05:37;98286.19;;;21.80;87.48
19447;BME280;9862;49.462;11.054;2023-07-08T04:08:04;98277.53;;;21.83;87.47
19447;BME280;9862;49.462;11.054;2023-07-08T04:10:31;98281.84;;;21.89;87.35
19447;BME280;9862;49.462;11.054;2023-07-08T04:12:59;98282.94;;;21.93;86.24
19447;BME280;9862;49.462;11.054;2023-07-08T04:15:26;98281.31;;;21.92;85.71
19447;BME280;9862;49.462;11.054;2023-07-08T04:17:54;98279.63;;;22.06;85.87
19447;BME280;9862;49.462;11.054;2023-07-08T04:20:23;98286.94;;;22.06;85.67
19447;BME280;9862;49.462;11.054;2023-07-08T04:22:50;98289.94;;;22.04;83.42
19447;BME280;9862;49.462;11.054;2023-07-08T04:25:18;98285.91;;;21.91;83.53
19447;BME280;9862;49.462;11.054;2023-07-08T04:27:45;98292.19;;;21.82;83.54
19447;BME280;9862;49.462;11.054;2023-07-08T04:30:20;98283.22;;;21.71;85.23
19447;BME280;9862;49.462;11.054;2023-07-08T04:32:49;98282.69;;;21.69;86.09
19447;BME280;9862;49.462;11.054;2023-07-08T04:35:16;98287.31;;;21.74;86.50
19447;BME280;9862;49.462;11.054;2023-07-08T04:37:42;98290.53;;;21.81;85.04
19447;BME280;9862;49.462;11.054;2023-07-08T04:40:14;98282.97;;;21.83;83.83
19447;BME280;9862;49.462;11.054;2023-07-08T04:42:42;98284.81;;;21.87;83.93
19447;BME280;9862;49.462;11.054;2023-07-08T04:45:10;98281.28;;;21.97;85.15
19447;BME280;9862;49.462;11.054;2023-07-08T04:47:38;98282.31;;;22.06;85.43
19447;BME280;9862;49.462;11.054;2023-07-08T04:50:05;98289.88;;;22.24;87.61
19447;BME280;9862;49.462;11.054;2023-07-08T04:52:32;98285.06;;;22.11;89.33
19447;BME280;9862;49.462;11.054;2023-07-08T04:54:58;98289.13;;;21.98;91.26
19447;BME280;9862;49.462;11.054;2023-07-08T04:57:25;98290.50;;;22.11;91.33
19447;BME280;9862;49.462;11.054;2023-07-08T04:59:52;98289.66;;;22.06;92.26
19447;BME280;9862;49.462;11.054;2023-07-08T05:02:18;98297.59;;;21.82;96.44
19447;BME280;9862;49.462;11.054;2023-07-08T05:04:46;98296.56;;;21.62;99.30
19447;BME280;9862;49.462;11.054;2023-07-08T05:07:13;98297.34;;;21.58;99.10
19447;BME280;9862;49.462;11.054;2023-07-08T05:09:39;98298.16;;;21.58;99.56
19447;BME280;9862;49.462;11.054;2023-07-08T05:12:06;98299.25;;;21.67;100.00
19447;BME280;9862;49.462;11.054;2023-07-08T05:14:33;98300.88;;;21.74;100.00
19447;BME280;9862;49.462;11.054;2023-07-08T05:17:00;98302.47;;;21.85;100.00
19447;BME280;9862;49.462;11.054;2023-07-08T05:19:26;98298.63;;;21.96;97.80
19447;BME280;9862;49.462;11.054;2023-07-08T05:21:55;98297.25;;;21.98;97.39
19447;BME280;9862;49.462;11.054;2023-07-08T05:24:21;98301.88;;;22.03;96.11
19447;BME280;9862;49.462;11.054;2023-07-08T05:26:48;98305.63;;;22.17;93.23
19447;BME280;9862;49.462;11.054;2023-07-08T05:29:14;98311.03;;;22.22;93.39
19447;BME280;9862;49.462;11.054;2023-07-08T05:31:41;98305.59;;;22.27;92.78
19447;BME280;9862;49.462;11.054;2023-07-08T05:34:08;98308.84;;;22.30;92.86
19447;BME280;9862;49.462;11.054;2023-07-08T05:36:34;98305.00;;;22.41;90.83
19447;BME280;9862;49.462;11.054;2023-07-08T05:39:02;98315.53;;;22.47;89.85
19447;BME280;9862;49.462;11.054;2023-07-08T05:41:30;98315.81;;;22.51;90.22
19447;BME280;9862;49.462;11.054;2023-07-08T05:43:56;98310.84;;;22.58;89.53
19447;BME280;9862;49.462;11.054;2023-07-08T05:46:23;98314.59;;;22.67;88.78
19447;BME280;9862;49.462;11.054;2023-07-08T05:48:50;98310.22;;;22.76;87.67
19447;BME280;9862;49.462;11.054;2023-07-08T05:51:17;98304.50;;;22.88;85.60
19447;BME280;9862;49.462;11.054;2023-07-08T05:53:43;98311.47;;;22.99;84.01
19447;BME280;9862;49.462;11.054;2023-07-08T05:56:11;98308.91;;;23.13;83.24
19447;BME280;9862;49.462;11.054;2023-07-08T05:58:38;98305.63;;;23.16;81.94
19447;BME280;9862;49.462;11.054;2023-07-08T06:01:04;98313.16;;;23.24;81.38
19447;BME280;9862;49.462;11.054;2023-07-08T06:03:31;98310.94;;;23.31;81.69
19447;BME280;9862;49.462;11.054;2023-07-08T06:05:57;98307.91;;;23.38;81.42
19447;BME280;9862;49.462;11.054;2023-07-08T06:08:24;98304.84;;;23.45;80.75
19447;BME280;9862;49.462;11.054;2023-07-08T06:10:51;98314.56;;;23.56;79.95
19447;BME280;9862;49.462;11.054;2023-07-08T06:13:18;98312.59;;;23.61;80.30
19447;BME280;9862;49.462;11.054;2023-07-08T06:15:45;98312.28;;;23.68;80.25
19447;BME280;9862;49.462;11.054;2023-07-08T06:18:12;98308.13;;;23.76;79.68
19447;BME280;9862;49.462;11.054;2023-07-08T06:20:38;98303.44;;;23.81;79.25
19447;BME280;9862;49.462;11.054;2023-07-08T06:23:05;98300.69;;;23.86;78.94
19447;BME280;9862;49.462;11.054;2023-07-08T06:25:32;98303.88;;;23.93;77.61
19447;BME280;9862;49.462;11.054;2023-07-08T06:27:59;98304.69;;;23.94;78.61
19447;BME280;9862;49.462;11.054;2023-07-08T06:30:27;98302.19;;;23.97;78.83
19447;BME280;9862;49.462;11.054;2023-07-08T06:32:53;98297.72;;;24.07;78.61
19447;BME280;9862;49.462;11.054;2023-07-08T06:35:20;98299.06;;;24.09;79.38
19447;BME280;9862;49.462;11.054;2023-07-08T06:37:46;98303.06;;;24.17;79.31
19447;BME280;9862;49.462;11.054;2023-07-08T06:40:13;98305.19;;;24.20;79.34
19447;BME280;9862;49.462;11.054;2023-07-08T06:42:40;98313.00;;;24.26;79.36
19447;BME280;9862;49.462;11.054;2023-07-08T06:45:08;98312.69;;;24.33;79.08
19447;BME280;9862;49.462;11.054;2023-07-08T06:47:36;98307.47;;;24.37;79.02
19447;BME280;9862;49.462;11.054;2023-07-08T06:50:03;98306.56;;;24.41;79.33
19447;BME280;9862;49.462;11.054;2023-07-08T06:52:29;98306.53;;;24.46;79.00
19447;BME280;9862;49.462;11.054;2023-07-08T06:54:59;98298.31;;;24.51;79.11
19447;BME280;9862;49.462;11.054;2023-07-08T06:57:26;98294.38;;;24.58;79.16
19447;BME280;9862;49.462;11.054;2023-07-08T06:59:52;98288.88;;;24.63;78.96
19447;BME280;9862;49.462;11.054;2023-07-08T07:02:19;98289.56;;;24.73;79.76
19447;BME280;9862;49.462;11.054;2023-07-08T07:04:47;98283.50;;;24.76;78.87
19447;BME280;9862;49.462;11.054;2023-07-08T07:07:16;98281.28;;;24.78;79.07
19447;BME280;9862;49.462;11.054;2023-07-08T07:09:43;98279.31;;;24.84;80.36
19447;BME280;9862;49.462;11.054;2023-07-08T07:12:09;98270.78;;;24.91;80.67
19447;BME280;9862;49.462;11.054;2023-07-08T07:14:36;98267.16;;;24.95;80.15
19447;BME280;9862;49.462;11.054;2023-07-08T07:17:03;98270.91;;;24.99;80.27
19447;BME280;9862;49.462;11.054;2023-07-08T07:19:29;98276.31;;;25.04;79.80
19447;BME280;9862;49.462;11.054;2023-07-08T07:22:00;98274.88;;;25.26;75.26
19447;BME280;9862;49.462;11.054;2023-07-08T07:24:27;98272.88;;;25.31;74.85
19447;BME280;9862;49.462;11.054;2023-07-08T07:26:53;98268.00;;;25.28;75.35
19447;BME280;9862;49.462;11.054;2023-07-08T07:29:21;98270.66;;;25.33;75.87
19447;BME280;9862;49.462;11.054;2023-07-08T07:31:48;98263.59;;;25.46;74.48
19447;BME280;9862;49.462;11.054;2023-07-08T07:34:15;98266.34;;;25.46;73.41
19447;BME280;9862;49.462;11.054;2023-07-08T07:36:41;98265.56;;;25.59;69.70
19447;BME280;9862;49.462;11.054;2023-07-08T07:39:09;98257.78;;;25.66;68.95
19447;BME280;9862;49.462;11.054;2023-07-08T07:41:36;98265.38;;;25.69;70.07
19447;BME280;9862;49.462;11.054;2023-07-08T07:44:02;98263.06;;;25.77;71.00
19447;BME280;9862;49.462;11.054;2023-07-08T07:46:29;98269.97;;;25.88;68.78
19447;BME280;9862;49.462;11.054;2023-07-08T07:48:55;98276.22;;;25.88;68.31
19447;BME280;9862;49.462;11.054;2023-07-08T07:51:22;98275.81;;;25.95;69.40
19447;BME280;9862;49.462;11.054;2023-07-08T07:53:49;98273.06;;;26.22;66.70
19447;BME280;9862;49.462;11.054;2023-07-08T07:56:17;98270.34;;;26.22;65.11
19447;BME280;9862;49.462;11.054;2023-07-08T07:58:43;98270.03;;;26.24;64.44
19447;BME280;9862;49.462;11.054;2023-07-08T08:01:10;98265.09;;;26.40;63.04
19447;BME280;9862;49.462;11.054;2023-07-08T08:03:38;98269.94;;;26.43;62.38
19447;BME280;9862;49.462;11.054;2023-07-08T08:06:05;98272.44;;;26.53;61.49
19447;BME280;9862;49.462;11.054;2023-07-08T08:08:32;98272.44;;;26.53;60.98
19447;BME280;9862;49.462;11.054;2023-07-08T08:10:58;98270.75;;;26.57;59.74
19447;BME280;9862;49.462;11.054;2023-07-08T08:13:26;98266.88;;;26.58;60.53
19447;BME280;9862;49.462;11.054;2023-07-08T08:15:56;98270.09;;;26.74;60.27
19447;BME280;9862;49.462;11.054;2023-07-08T08:18:22;98263.81;;;26.73;59.94
19447;BME280;9862;49.462;11.054;2023-07-08T08:20:50;98268.84;;;26.80;58.40
19447;BME280;9862;49.462;11.054;2023-07-08T08:23:16;98273.75;;;26.92;58.64
19447;BME280;9862;49.462;11.054;2023-07-08T08:25:43;98271.31;;;27.04;56.87
19447;BME280;9862;49.462;11.054;2023-07-08T08:28:10;98266.75;;;26.99;57.17
19447;BME280;9862;49.462;11.054;2023-07-08T08:30:38;98268.59;;;27.04;56.25
19447;BME280;9862;49.462;11.054;2023-07-08T08:33:05;98272.44;;;27.03;56.01
19447;BME280;9862;49.462;11.054;2023-07-08T08:35:31;98270.94;;;27.19;54.94
19447;BME280;9862;49.462;11.054;2023-07-08T08:37:58;98270.94;;;27.19;54.92
19447;BME280;9862;49.462;11.054;2023-07-08T08:40:28;98263.22;;;27.21;54.74
19447;BME280;9862;49.462;11.054;2023-07-08T08:43:00;98272.28;;;27.30;55.35
19447;BME280;9862;49.462;11.054;2023-07-08T08:45:30;98267.50;;;27.36;53.68
19447;BME280;9862;49.462;11.054;2023-07-08T08:48:03;98270.72;;;27.38;54.20
19447;BME280;9862;49.462;11.054;2023-07-08T08:50:34;98266.56;;;27.41;53.60
19447;BME280;9862;49.462;11.054;2023-07-08T08:53:05;98278.31;;;27.41;53.32
19447;BME280;9862;49.462;11.054;2023-07-08T08:55:35;98275.78;;;27.45;51.98
19447;BME280;9862;49.462;11.054;2023-07-08T08:58:23;98272.75;;;27.55;51.53
19447;BME280;9862;49.462;11.054;2023-07-08T09:00:54;98269.59;;;27.61;50.76
19447;BME280;9862;49.462;11.054;2023-07-08T09:03:33;98268.16;;;27.64;50.13
19447;BME280;9862;49.462;11.054;2023-07-08T09:06:04;98271.28;;;27.71;47.27
19447;BME280;9862;49.462;11.054;2023-07-08T09:08:35;98269.88;;;27.82;43.63
19447;BME280;9862;49.462;11.054;2023-07-08T09:11:10;98266.22;;;27.95;42.19
19447;BME280;9862;49.462;11.054;2023-07-08T09:13:41;98268.81;;;28.01;42.47
19447;BME280;9862;49.462;11.054;2023-07-08T09:16:15;98266.91;;;28.10;40.47
19447;BME280;9862;49.462;11.054;2023-07-08T09:19:03;98266.28;;;28.13;40.98
19447;BME280;9862;49.462;11.054;2023-07-08T09:21:36;98265.56;;;28.30;39.73
19447;BME280;9862;49.462;11.054;2023-07-08T09:24:14;98264.84;;;28.24;40.16
19447;BME280;9862;49.462;11.054;2023-07-08T09:26:43;98257.78;;;28.23;39.89
19447;BME280;9862;49.462;11.054;2023-07-08T09:29:11;98275.81;;;28.24;39.53
19447;BME280;9862;49.462;11.054;2023-07-08T09:31:39;98272.44;;;28.18;38.96
19447;BME280;9862;49.462;11.054;2023-07-08T09:34:13;98279.03;;;28.26;38.18
19447;BME280;9862;49.462;11.054;2023-07-08T09:36:42;98272.16;;;28.37;37.13
19447;BME280;9862;49.462;11.054;2023-07-08T09:39:11;98277.94;;;28.36;37.24
19447;BME280;9862;49.462;11.054;2023-07-08T09:41:39;98284.22;;;28.36;37.61
19447;BME280;9862;49.462;11.054;2023-07-08T09:44:18;98278.28;;;28.34;37.23
19447;BME280;9862;49.462;11.054;2023-07-08T09:46:47;98283.63;;;28.39;37.45
19447;BME280;9862;49.462;11.054;2023-07-08T09:49:21;98270.06;;;28.34;38.14
19447;BME280;9862;49.462;11.054;2023-07-08T09:51:49;98276.00;;;28.36;36.30
19447;BME280;9862;49.462;11.054;2023-07-08T09:54:18;98276.66;;;28.33;36.24
19447;BME280;9862;49.462;11.054;2023-07-08T09:56:57;98272.19;;;28.55;35.59
19447;BME280;9862;49.462;11.054;2023-07-08T09:59:29;98276.88;;;28.63;36.19
19447;BME280;9862;49.462;11.054;2023-07-08T10:02:00;98274.00;;;28.68;36.51
19447;BME280;9862;49.462;11.054;2023-07-08T10:04:29;98275.75;;;28.64;37.03
19447;BME280;9862;49.462;11.054;2023-07-08T10:06:56;98275.59;;;28.69;36.93
19447;BME280;9862;49.462;11.054;2023-07-08T10:09:24;98275.75;;;28.64;37.00
19447;BME280;9862;49.462;11.054;2023-07-08T10:11:54;98276.06;;;28.71;37.17
19447;BME280;9862;49.462;11.054;2023-07-08T10:14:26;98277.06;;;28.92;36.52
19447;BME280;9862;49.462;11.054;2023-07-08T10:16:54;98269.97;;;28.91;37.02
19447;BME280;9862;49.462;11.054;2023-07-08T10:19:21;98267.56;;;28.90;36.16
19447;BME280;9862;49.462;11.054;2023-07-08T10:21:57;98266.91;;;28.93;36.21
19447;BME280;9862;49.462;11.054;2023-07-08T10:24:37;98274.81;;;28.86;35.99
19447;BME280;9862;49.462;11.054;2023-07-08T10:27:16;98263.69;;;28.99;35.88
19447;BME280;9862;49.462;11.054;2023-07-08T10:29:52;98263.84;;;29.12;35.61
19447;BME280;9862;49.462;11.054;2023-07-08T10:32:26;98263.03;;;29.11;35.40
19447;BME280;9862;49.462;11.054;2023-07-08T10:35:00;98255.28;;;29.13;35.64
19447;BME280;9862;49.462;11.054;2023-07-08T10:37:36;98270.47;;;29.11;36.00
19447;BME280;9862;49.462;11.054;2023-07-08T10:40:31;98266.09;;;29.10;36.48
19447;BME280;9862;49.462;11.054;2023-07-08T10:43:16;98266.75;;;29.06;36.46
19447;BME280;9862;49.462;11.054;2023-07-08T10:45:52;98256.91;;;29.14;35.86
19447;BME280;9862;49.462;11.054;2023-07-08T10:51:21;98266.25;;;29.22;35.78
19447;BME280;9862;49.462;11.054;2023-07-08T10:54:03;98258.03;;;29.22;36.02
19447;BME280;9862;49.462;11.054;2023-07-08T10:56:39;98259.81;;;29.18;35.77
19447;BME280;9862;49.462;11.054;2023-07-08T10:59:36;98253.81;;;29.33;35.89
19447;BME280;9862;49.462;11.054;2023-07-08T11:02:31;98248.81;;;29.44;36.18
19447;BME280;9862;49.462;11.054;2023-07-08T11:05:10;98253.78;;;29.50;35.92
19447;BME280;9862;49.462;11.054;2023-07-08T11:07:44;98247.66;;;29.53;35.87
19447;BME280;9862;49.462;11.054;2023-07-08T11:10:18;98254.94;;;29.49;35.75
19447;BME280;9862;49.462;11.054;2023-07-08T11:12:51;98247.94;;;29.60;34.99
19447;BME280;9862;49.462;11.054;2023-07-08T11:15:21;98243.44;;;29.64;35.96
19447;BME280;9862;49.462;11.054;2023-07-08T11:17:55;98245.41;;;29.55;35.83
19447;BME280;9862;49.462;11.054;2023-07-08T11:20:31;98231.50;;;29.60;35.24
19447;BME280;9862;49.462;11.054;2023-07-08T11:23:04;98228.91;;;29.64;35.23
19447;BME280;9862;49.462;11.054;2023-07-08T11:25:36;98236.69;;;29.53;35.71
19447;BME280;9862;49.462;11.054;2023-07-08T11:28:05;98231.63;;;29.73;35.05
19447;BME280;9862;49.462;11.054;2023-07-08T11:30:36;98224.25;;;29.94;34.55
19447;BME280;9862;49.462;11.054;2023-07-08T11:33:11;98228.66;;;29.86;34.69
19447;BME280;9862;49.462;11.054;2023-07-08T11:35:42;98230.63;;;29.77;35.28
19447;BME280;9862;49.462;11.054;2023-07-08T11:38:13;98230.84;;;29.63;35.31
19447;BME280;9862;49.462;11.054;2023-07-08T11:40:52;98239.09;;;29.46;35.56
19447;BME280;9862;49.462;11.054;2023-07-08T11:43:20;98229.44;;;29.31;35.72
19447;BME280;9862;49.462;11.054;2023-07-08T11:45:49;98230.25;;;29.32;36.67
19447;BME280;9862;49.462;11.054;2023-07-08T11:48:21;98225.72;;;29.53;35.63
19447;BME280;9862;49.462;11.054;2023-07-08T11:50:49;98230.38;;;29.53;35.98
19447;BME280;9862;49.462;11.054;2023-07-08T11:53:34;98222.50;;;29.51;35.95
19447;BME280;9862;49.462;11.054;2023-07-08T11:56:04;98211.38;;;29.86;35.71
19447;BME280;9862;49.462;11.054;2023-07-08T11:58:59;98207.31;;;29.92;35.57
19447;BME280;9862;49.462;11.054;2023-07-08T12:01:37;98199.22;;;29.96;35.08
19447;BME280;9862;49.462;11.054;2023-07-08T12:04:20;98208.28;;;30.26;34.60
19447;BME280;9862;49.462;11.054;2023-07-08T12:07:02;98212.25;;;30.07;35.32
19447;BME280;9862;49.462;11.054;2023-07-08T12:09:35;98201.56;;;30.14;35.55
19447;BME280;9862;49.462;11.054;2023-07-08T12:12:07;98201.84;;;30.22;35.66
19447;BME280;9862;49.462;11.054;2023-07-08T12:14:40;98200.78;;;30.35;35.08
19447;BME280;9862;49.462;11.054;2023-07-08T12:17:11;98209.88;;;30.27;35.46
19447;BME280;9862;49.462;11.054;2023-07-08T12:19:39;98208.94;;;30.23;35.84
19447;BME280;9862;49.462;11.054;2023-07-08T12:22:08;98191.66;;;30.22;35.46
19447;BME280;9862;49.462;11.054;2023-07-08T12:24:34;98203.25;;;30.28;35.48
19447;BME280;9862;49.462;11.054;2023-07-08T12:27:04;98195.22;;;30.23;35.27
19447;BME280;9862;49.462;11.054;2023-07-08T12:29:31;98202.78;;;30.26;35.49
19447;BME280;9862;49.462;11.054;2023-07-08T12:31:58;98205.41;;;30.22;34.76
19447;BME280;9862;49.462;11.054;2023-07-08T12:34:25;98196.06;;;30.14;34.99
19447;BME280;9862;49.462;11.054;2023-07-08T12:36:53;98206.38;;;30.17;35.27
19447;BME280;9862;49.462;11.054;2023-07-08T12:39:21;98196.34;;;30.22;35.51
19447;BME280;9862;49.462;11.054;2023-07-08T12:41:48;98188.66;;;30.36;35.03
19447;BME280;9862;49.462;11.054;2023-07-08T12:44:17;98205.59;;;30.38;34.08
19447;BME280;9862;49.462;11.054;2023-07-08T12:46:47;98193.00;;;30.37;34.38
19447;BME280;9862;49.462;11.054;2023-07-08T12:49:15;98207.19;;;30.39;34.62
19447;BME280;9862;49.462;11.054;2023-07-08T12:51:44;98201.97;;;30.46;33.70
19447;BME280;9862;49.462;11.054;2023-07-08T12:54:12;98196.47;;;30.46;33.97
19447;BME280;9862;49.462;11.054;2023-07-08T12:56:42;98204.53;;;30.51;34.46
19447;BME280;9862;49.462;11.054;2023-07-08T12:59:12;98200.06;;;30.67;33.73
19447;BME280;9862;49.462;11.054;2023-07-08T13:01:42;98204.97;;;30.95;32.89
19447;BME280;9862;49.462;11.054;2023-07-08T13:04:11;98204.56;;;31.05;32.69
19447;BME280;9862;49.462;11.054;2023-07-08T13:06:40;98201.69;;;31.01;32.77
19447;BME280;9862;49.462;11.054;2023-07-08T13:09:35;98200.84;;;30.89;33.13
19447;BME280;9862;49.462;11.054;2023-07-08T13:12:20;98198.84;;;31.10;32.88
19447;BME280;9862;49.462;11.054;2023-07-08T13:14:48;98205.06;;;31.19;33.12